DKKHK EDLW-EDLW

Flight info

Callsign DKKHK
Flight time 0h 7m
Altitude
Route
Aircraft DISC

Departure

Time 2026-05-06 18:30
Airport Dortmund Airport (EDLW)

Arrival

Time 2026-05-06 18:37
Airport Dortmund Airport (EDLW)
Time Latitude Longitude Altitude Speed Heading
2026-05-06 18:28 51.61566 7.49676 556 ft 68 kts 129°
2026-05-06 18:29 51.61314 7.50247 675 ft 59 kts 143°
2026-05-06 18:29 51.61029 7.50866 689 ft 71 kts 137°
2026-05-06 18:29 51.60723 7.51374 798 ft 60 kts 156°
2026-05-06 18:29 51.60425 7.51823 868 ft 64 kts 148°
2026-05-06 18:30 51.60064 7.52335 928 ft 71 kts 144°
2026-05-06 18:30 51.59751 7.52869 1042 ft 67 kts 147°
2026-05-06 18:30 51.59373 7.53366 1154 ft 63 kts 159°
2026-05-06 18:30 51.58958 7.53627 1237 ft 64 kts 170°
2026-05-06 18:31 51.58571 7.53821 1375 ft 56 kts 174°
2026-05-06 18:31 51.58196 7.53977 1450 ft 59 kts 171°
2026-05-06 18:31 51.57780 7.54206 1519 ft 62 kts 169°
2026-05-06 18:31 51.57358 7.54401 1574 ft 64 kts 170°
2026-05-06 18:32 51.56950 7.54583 1675 ft 57 kts 172°
2026-05-06 18:32 51.56561 7.54742 1751 ft 58 kts 172°
2026-05-06 18:32 51.56149 7.54908 1822 ft 64 kts 168°
2026-05-06 18:32 51.55713 7.55087 1902 ft 65 kts 169°
2026-05-06 18:33 51.55288 7.55249 2034 ft 61 kts 167°
2026-05-06 18:33 51.54892 7.55451 2056 ft 60 kts 164°
2026-05-06 18:33 51.54499 7.55710 2033 ft 63 kts 159°
2026-05-06 18:33 51.54091 7.56020 2005 ft 67 kts 157°
2026-05-06 18:34 51.53653 7.56359 1851 ft 89 kts 158°
2026-05-06 18:34 51.52934 7.56968 1229 ft 138 kts 151°
2026-05-06 18:34 51.52106 7.57855 993 ft 136 kts 155°
2026-05-06 18:34 51.51467 7.57999 1152 ft 85 kts 262°
2026-05-06 18:35 51.51456 7.57330 1329 ft 54 kts 255°
2026-05-06 18:35 51.51351 7.56783 1303 ft 53 kts 246°
2026-05-06 18:35 51.51071 7.56620 1221 ft 69 kts 156°
2026-05-06 18:35 51.50680 7.57357 1002 ft 100 kts 119°
2026-05-06 18:36 51.50853 7.58453 885 ft 114 kts 57°
2026-05-06 18:36 51.51224 7.59515 631 ft 100 kts 61°
2026-05-06 18:36 51.51566 7.60483 428 ft 93 kts 59°
2026-05-06 18:36 51.51859 7.61307 414 ft 73 kts 60°
2026-05-06 18:37 51.52079 7.61927 406 ft 60 kts 59°
2026-05-06 18:37 51.52150 7.62369 403 ft 24 kts 137°
2026-05-06 18:37 51.52094 7.62417 402 ft 0 kts 178°
2026-05-06 18:38 51.52054 7.62366 403 ft 15 kts 239°
2026-05-06 18:38 51.51978 7.62153 406 ft 29 kts 243°
2026-05-06 18:38 51.51850 7.61808 411 ft 42 kts 240°
2026-05-06 18:38 51.51701 7.61398 418 ft 41 kts 239°
2026-05-06 18:39 51.51557 7.61002 429 ft 41 kts 221°
2026-05-06 18:39 51.51393 7.60697 428 ft 33 kts 240°
2026-05-06 18:39 51.51268 7.60342 437 ft 36 kts 238°
2026-05-06 18:40 51.51180 7.60364 457 ft 11 kts 54°
2026-05-06 18:40 51.51197 7.60399 456 ft 0 kts 45°